Ana Sayfa
METAR-TAF:

METAR-TAF

Havaalanları :

Masvingo, Zimbabve

Enlem: 20-04S, Boylam: 030-52E, yükseklik: 1094 m

Güncel hava durumu gözlemi

Rapor saat 14:00 UTC de 13 saat ve 35 dakika önce yapıldı.
Rüzgar güneydoğudan 6 kt
Sıcaklık 27°C
Nem 70%
Basınç 1008 hPa
Görüş mesafesi 10 km veya daha fazla
3000 ft yükseklikte az bulutlu
4000 ft yükseklikte parçalı çok bulutlu
10000 ft yükseklikte çok bulutlu

METAR: FVMV 191400Z 14006KT 9999 FEW030 BKN040 OVC100 27/21 Q1008

Saat: 05:35 (03:35 UTC)


TAF: eksik

4.000'den fazla havaalanı için hava durumu gözlemleri ve tahminleri (METAR ve TAF raporları).

Kullanılabilir istasyonlar harita üzerinde sarı ve kırmızı noktalarla gösterilir.

İstasyonun adını görmek için fareyi noktanın üzerinde gezdirin.

Sonrasında hava gözlem ve tahminlerini görmek için tıklayın.

Haritayı değiştirmek için: yaklaştırmak için siyah artı işaretli yeşil düğmeye ve uzaklaştırmak için de eksi işaretli düğmeye hızla tıklayın; bitişik haritalar için yeşil okları kullanın.


METAR-TAF: